createdAt,value
2018-07-20T00:01:33.560Z,22.66
2018-07-20T00:04:02.067Z,22.64
2018-07-20T00:06:31.017Z,22.61
2018-07-20T00:08:59.819Z,22.60
2018-07-20T00:11:28.314Z,22.56
2018-07-20T00:13:56.988Z,22.52
2018-07-20T00:16:25.788Z,22.52
2018-07-20T00:18:54.694Z,22.50
2018-07-20T00:21:23.338Z,22.49
2018-07-20T00:23:51.942Z,22.47
2018-07-20T00:26:21.124Z,22.43
2018-07-20T00:28:49.735Z,22.42
2018-07-20T00:31:18.192Z,22.37
2018-07-20T00:33:47.203Z,22.30
2018-07-20T00:36:15.786Z,22.27
2018-07-20T00:38:44.325Z,22.29
2018-07-20T00:41:13.003Z,22.24
2018-07-20T00:43:41.474Z,22.17
2018-07-20T00:46:09.941Z,22.13
2018-07-20T00:48:38.583Z,22.09
2018-07-20T00:51:07.304Z,22.08
2018-07-20T00:53:35.763Z,22.10
2018-07-20T00:56:04.352Z,22.06
2018-07-20T00:58:32.858Z,22.02
2018-07-20T01:01:01.621Z,22.02
2018-07-20T01:03:30.200Z,21.97
2018-07-20T01:05:58.766Z,22.01
2018-07-20T01:08:27.333Z,22.00
2018-07-20T01:10:56.057Z,21.99
2018-07-20T01:13:24.547Z,21.99
2018-07-20T01:15:53.001Z,21.94
2018-07-20T01:18:21.689Z,21.92
2018-07-20T01:20:50.286Z,21.85
2018-07-20T01:23:18.747Z,21.81
2018-07-20T01:25:47.635Z,21.81
2018-07-20T01:28:16.759Z,21.76
2018-07-20T01:30:45.249Z,21.74
2018-07-20T01:33:13.733Z,21.73
2018-07-20T01:35:42.576Z,21.71
2018-07-20T01:38:10.754Z,21.69
2018-07-20T01:40:39.268Z,21.70
2018-07-20T01:43:08.255Z,21.68
2018-07-20T01:45:36.775Z,21.67
2018-07-20T01:48:05.243Z,21.65
2018-07-20T01:50:33.998Z,21.60
2018-07-20T01:53:02.495Z,21.58
2018-07-20T01:55:30.994Z,21.55
2018-07-20T01:57:59.936Z,21.51
2018-07-20T02:00:28.404Z,21.48
2018-07-20T02:02:56.914Z,21.46
2018-07-20T02:05:25.613Z,21.43
2018-07-20T02:07:54.082Z,21.36
2018-07-20T02:10:22.559Z,21.34
2018-07-20T02:12:51.331Z,21.39
2018-07-20T02:15:19.829Z,21.36
2018-07-20T02:17:48.286Z,21.33
2018-07-20T02:20:17.040Z,21.27
2018-07-20T02:22:45.773Z,21.24
2018-07-20T02:25:14.229Z,21.28
2018-07-20T02:27:42.718Z,21.26
2018-07-20T02:30:11.621Z,21.24
2018-07-20T02:32:40.118Z,21.19
2018-07-20T02:35:08.571Z,21.17
2018-07-20T02:37:37.369Z,21.16
2018-07-20T02:40:06.224Z,21.13
2018-07-20T02:42:34.712Z,21.14
2018-07-20T02:45:03.410Z,21.11
2018-07-20T02:47:31.891Z,21.08
2018-07-20T02:50:00.345Z,21.04
2018-07-20T02:52:28.988Z,21.03
2018-07-20T02:54:57.570Z,21.05
2018-07-20T02:57:26.045Z,21.00
2018-07-20T02:59:54.521Z,20.94
2018-07-20T03:02:23.513Z,20.95
2018-07-20T03:04:54.759Z,20.95
2018-07-20T03:07:23.556Z,20.93
2018-07-20T03:09:52.044Z,20.97
2018-07-20T03:12:20.624Z,20.94
2018-07-20T03:14:49.218Z,20.93
2018-07-20T03:17:17.701Z,20.89
2018-07-20T03:19:46.183Z,20.84
2018-07-20T03:25:07.518Z,20.79
2018-07-20T03:27:36.358Z,20.82
2018-07-20T03:30:04.942Z,20.80
2018-07-20T03:32:33.549Z,20.78
2018-07-20T03:35:02.243Z,20.78
2018-07-20T03:37:30.729Z,20.75
2018-07-20T03:39:59.212Z,20.72
2018-07-20T03:42:27.730Z,20.70
2018-07-20T03:44:56.210Z,20.70
2018-07-20T03:47:24.658Z,20.66
2018-07-20T03:49:53.121Z,20.56
2018-07-20T03:52:21.594Z,20.60
2018-07-20T03:54:50.321Z,20.61
2018-07-20T03:57:18.811Z,20.62
2018-07-20T03:59:47.257Z,20.60
2018-07-20T04:02:16.206Z,20.59
2018-07-20T04:04:44.903Z,20.58
2018-07-20T04:07:13.346Z,20.56
2018-07-20T04:09:42.905Z,20.53
2018-07-20T04:12:11.400Z,20.59
2018-07-20T04:14:39.881Z,20.59
2018-07-20T04:17:08.734Z,20.54
2018-07-20T04:19:37.222Z,20.54
2018-07-20T04:22:06.434Z,20.50
2018-07-20T04:24:35.339Z,20.51
2018-07-20T04:27:03.818Z,20.50
2018-07-20T04:29:32.311Z,20.49
2018-07-20T04:32:00.987Z,20.50
2018-07-20T04:34:29.450Z,20.52
2018-07-20T04:36:57.941Z,20.51
2018-07-20T04:39:26.636Z,20.50
2018-07-20T04:41:55.102Z,20.45
2018-07-20T04:44:25.442Z,20.50
2018-07-20T04:46:54.187Z,20.45
2018-07-20T04:49:23.696Z,20.39
2018-07-20T04:51:52.241Z,20.36
2018-07-20T04:54:21.200Z,20.26
2018-07-20T04:56:49.724Z,20.15
2018-07-20T04:59:18.322Z,20.14
2018-07-20T05:01:46.939Z,20.12
2018-07-20T05:04:15.438Z,20.07
2018-07-20T05:06:44.127Z,20.08
2018-07-20T05:09:12.909Z,20.08
2018-07-20T05:11:41.394Z,20.06
2018-07-20T05:14:10.833Z,20.11
2018-07-20T05:16:39.483Z,20.14
2018-07-20T05:19:07.999Z,20.09
2018-07-20T05:21:36.461Z,20.09
2018-07-20T05:24:05.160Z,20.13
2018-07-20T05:26:33.637Z,20.16
2018-07-20T05:29:02.126Z,20.15
2018-07-20T05:31:30.647Z,20.16
2018-07-20T05:33:59.288Z,20.18
2018-07-20T05:36:27.805Z,20.18
2018-07-20T05:38:56.421Z,20.13
2018-07-20T05:41:24.885Z,20.16
2018-07-20T05:43:53.416Z,20.16
2018-07-20T05:46:23.958Z,20.18
2018-07-20T05:48:52.541Z,20.24
2018-07-20T05:51:21.011Z,20.28
2018-07-20T05:53:50.171Z,20.32
2018-07-20T05:56:18.858Z,20.38
2018-07-20T05:58:47.363Z,20.41
2018-07-20T06:01:16.229Z,20.42
2018-07-20T06:03:44.707Z,20.43
2018-07-20T06:06:13.249Z,20.44
2018-07-20T06:08:42.264Z,20.44
2018-07-20T06:11:10.725Z,20.50
2018-07-20T06:13:40.066Z,20.57
2018-07-20T06:16:08.733Z,20.65
2018-07-20T06:18:37.206Z,20.72
2018-07-20T06:21:06.299Z,20.76
2018-07-20T06:23:35.263Z,20.82
2018-07-20T06:26:03.833Z,20.88
2018-07-20T06:28:32.313Z,20.85
2018-07-20T06:31:01.138Z,20.87
2018-07-20T06:33:29.652Z,20.90
2018-07-20T06:35:58.249Z,20.94
2018-07-20T06:38:26.733Z,20.98
2018-07-20T06:40:55.219Z,21.06
2018-07-20T06:43:24.283Z,21.22
2018-07-20T06:45:52.803Z,21.36
2018-07-20T06:48:21.238Z,21.47
2018-07-20T06:50:50.028Z,21.66
2018-07-20T06:53:18.525Z,21.71
2018-07-20T06:55:47.043Z,21.84
2018-07-20T06:58:15.691Z,21.84
2018-07-20T07:00:44.158Z,21.83
2018-07-20T07:03:12.618Z,21.88
2018-07-20T07:05:41.415Z,21.93
2018-07-20T07:08:09.920Z,22.00
2018-07-20T07:10:38.402Z,22.05
2018-07-20T07:13:07.480Z,22.11
2018-07-20T07:15:35.997Z,22.22
2018-07-20T07:18:04.565Z,22.27
2018-07-20T07:20:33.314Z,22.42
2018-07-20T07:23:01.790Z,22.64
2018-07-20T07:25:30.411Z,22.63
2018-07-20T07:27:59.331Z,22.69
2018-07-20T07:30:28.536Z,22.75
2018-07-20T07:32:57.022Z,22.77
2018-07-20T07:35:25.643Z,22.83
2018-07-20T07:37:54.122Z,22.87
2018-07-20T07:40:22.599Z,22.93
2018-07-20T07:42:58.995Z,22.95
2018-07-20T07:45:27.426Z,22.90
2018-07-20T07:47:55.924Z,22.78
2018-07-20T07:50:24.536Z,22.76
2018-07-20T07:52:53.052Z,22.81
2018-07-20T07:55:21.546Z,22.80
2018-07-20T07:57:50.192Z,22.87
2018-07-20T08:00:18.661Z,22.91
2018-07-20T08:02:47.585Z,23.04
2018-07-20T08:05:16.350Z,23.19
2018-07-20T08:07:44.809Z,23.24
2018-07-20T08:10:13.325Z,23.38
2018-07-20T08:12:42.209Z,23.50
2018-07-20T08:15:10.685Z,23.56
2018-07-20T08:17:39.260Z,23.60
2018-07-20T08:20:08.717Z,23.63
2018-07-20T08:22:37.222Z,23.67
2018-07-20T08:25:05.718Z,23.58
2018-07-20T08:27:34.413Z,23.53
2018-07-20T08:30:02.896Z,23.56
2018-07-20T08:32:31.914Z,23.69
2018-07-20T08:35:00.864Z,23.82
2018-07-20T08:37:29.343Z,23.90
2018-07-20T08:39:57.808Z,23.99
2018-07-20T08:42:26.578Z,24.06
2018-07-20T08:44:55.090Z,24.00
2018-07-20T08:47:23.586Z,23.98
2018-07-20T08:49:52.580Z,23.99
2018-07-20T08:52:21.072Z,24.06
2018-07-20T08:54:49.537Z,24.16
2018-07-20T08:57:19.246Z,24.30
2018-07-20T08:59:47.960Z,24.29
2018-07-20T09:02:16.463Z,24.39
2018-07-20T09:04:45.296Z,24.53
2018-07-20T09:07:13.747Z,24.70
2018-07-20T09:09:42.806Z,24.88
2018-07-20T09:12:11.296Z,25.10
2018-07-20T09:14:39.779Z,25.13
2018-07-20T09:17:08.264Z,25.24
2018-07-20T09:19:37.013Z,25.39
2018-07-20T09:22:05.630Z,25.49
2018-07-20T09:24:34.621Z,25.61
2018-07-20T09:27:03.369Z,25.73
2018-07-20T09:29:31.824Z,25.79
2018-07-20T09:32:00.333Z,25.84
2018-07-20T09:34:29.128Z,25.92
2018-07-20T09:36:57.620Z,26.08
2018-07-20T09:39:26.306Z,26.15
2018-07-20T09:41:59.032Z,26.29
2018-07-20T09:44:27.867Z,26.18
2018-07-20T09:46:56.233Z,26.30
2018-07-20T09:49:24.850Z,26.38
2018-07-20T09:51:53.366Z,26.62
2018-07-20T09:54:21.851Z,26.73
2018-07-20T09:56:50.578Z,26.84
2018-07-20T09:59:19.040Z,26.99
2018-07-20T10:01:47.515Z,27.09
2018-07-20T10:04:16.104Z,27.09
2018-07-20T10:06:44.639Z,26.80
2018-07-20T10:09:13.639Z,26.85
2018-07-20T10:11:42.425Z,26.76
2018-07-20T10:14:11.042Z,26.92
2018-07-20T10:16:39.529Z,26.95
2018-07-20T10:19:08.199Z,26.94
2018-07-20T10:21:36.970Z,26.97
2018-07-20T10:24:05.499Z,27.14
2018-07-20T10:26:33.973Z,27.16
2018-07-20T10:29:02.773Z,27.18
2018-07-20T10:31:31.253Z,27.02
2018-07-20T10:33:59.772Z,26.99
2018-07-20T10:36:28.625Z,27.01
2018-07-20T10:38:57.357Z,27.09
2018-07-20T10:41:25.886Z,27.20
2018-07-20T10:43:54.390Z,27.34
2018-07-20T10:46:23.556Z,27.50
2018-07-20T10:48:52.050Z,27.55
2018-07-20T10:51:20.540Z,27.49
2018-07-20T10:53:49.628Z,27.56
2018-07-20T10:56:18.111Z,27.54
2018-07-20T10:58:46.606Z,27.63
2018-07-20T11:01:15.290Z,27.67
2018-07-20T11:03:43.803Z,27.71
2018-07-20T11:06:12.796Z,27.89
2018-07-20T11:08:41.631Z,27.94
2018-07-20T11:11:10.653Z,27.85
2018-07-20T11:13:39.126Z,27.83
2018-07-20T11:16:07.981Z,27.90
2018-07-20T11:18:36.793Z,27.99
2018-07-20T11:21:05.314Z,28.12
2018-07-20T11:23:33.795Z,28.07
2018-07-20T11:26:02.734Z,28.07
2018-07-20T11:28:31.185Z,28.13
2018-07-20T11:30:59.656Z,28.15
2018-07-20T11:33:28.203Z,28.02
2018-07-20T11:35:56.683Z,28.05
2018-07-20T11:38:25.280Z,28.14
2018-07-20T11:40:54.025Z,28.13
2018-07-20T11:43:22.567Z,28.12
2018-07-20T11:45:51.051Z,28.09
2018-07-20T11:48:19.738Z,28.10
2018-07-20T11:50:48.283Z,28.18
2018-07-20T11:53:16.953Z,28.24
2018-07-20T11:55:45.423Z,28.54
2018-07-20T11:58:13.894Z,28.87
2018-07-20T12:00:42.385Z,29.11
2018-07-20T12:03:10.850Z,29.26
2018-07-20T12:05:39.308Z,29.57
2018-07-20T12:08:08.065Z,30.31
2018-07-20T12:10:36.562Z,30.28
2018-07-20T12:13:05.114Z,30.55
2018-07-20T12:15:33.801Z,30.88
2018-07-20T12:18:02.264Z,30.73
2018-07-20T12:20:30.719Z,30.89
2018-07-20T12:22:59.313Z,30.90
2018-07-20T12:25:27.787Z,30.63
2018-07-20T12:27:56.506Z,30.58
2018-07-20T12:30:24.970Z,30.96
2018-07-20T12:32:53.425Z,31.15
2018-07-20T12:35:21.922Z,30.85
2018-07-20T12:37:50.381Z,30.82
2018-07-20T12:40:18.560Z,30.70
2018-07-20T12:42:47.585Z,30.90
2018-07-20T12:45:16.041Z,31.36
2018-07-20T12:47:44.495Z,32.09
2018-07-20T12:50:13.203Z,32.42
2018-07-20T12:52:42.144Z,32.32
2018-07-20T12:55:10.653Z,32.55
2018-07-20T12:57:39.144Z,32.62
2018-07-20T13:00:08.063Z,32.18
2018-07-20T13:02:36.554Z,32.15
2018-07-20T13:05:05.921Z,32.34
2018-07-20T13:07:34.556Z,31.76
2018-07-20T13:10:03.138Z,32.53
2018-07-20T13:12:32.161Z,33.20
2018-07-20T13:15:00.638Z,32.94
2018-07-20T13:17:29.455Z,32.99
2018-07-20T13:19:58.172Z,33.53
2018-07-20T13:22:26.628Z,34.06
2018-07-20T13:24:55.114Z,33.90
2018-07-20T13:27:24.044Z,33.92
2018-07-20T13:29:52.518Z,34.07
2018-07-20T13:32:21.004Z,33.85
2018-07-20T13:34:49.626Z,34.01
2018-07-20T13:37:18.114Z,33.77
2018-07-20T13:39:46.809Z,34.25
2018-07-20T13:42:15.528Z,34.15
2018-07-20T13:44:44.181Z,34.23
2018-07-20T13:47:12.659Z,35.19
2018-07-20T13:49:41.167Z,35.48
2018-07-20T13:52:09.684Z,34.76
2018-07-20T13:54:38.165Z,34.91
2018-07-20T13:57:07.154Z,34.27
2018-07-20T13:59:35.617Z,34.45
2018-07-20T14:02:04.096Z,34.39
2018-07-20T14:04:32.882Z,33.64
2018-07-20T14:07:01.401Z,33.68
2018-07-20T14:09:29.961Z,34.20
2018-07-20T14:11:58.837Z,34.51
2018-07-20T14:14:27.357Z,34.23
2018-07-20T14:16:55.843Z,34.21
2018-07-20T14:19:31.032Z,34.04
2018-07-20T14:21:59.699Z,34.45
2018-07-20T14:24:28.202Z,35.03
2018-07-20T14:26:56.879Z,35.08
2018-07-20T14:29:25.320Z,35.23
2018-07-20T14:31:53.864Z,35.28
2018-07-20T14:34:22.648Z,35.47
2018-07-20T14:36:51.151Z,35.85
2018-07-20T14:39:19.654Z,35.90
2018-07-20T14:41:49.008Z,36.16
2018-07-20T14:44:17.519Z,36.15
2018-07-20T14:46:46.286Z,36.00
2018-07-20T14:49:14.992Z,36.05
2018-07-20T14:51:43.655Z,36.33
2018-07-20T14:54:12.132Z,36.08
2018-07-20T14:56:40.619Z,35.71
2018-07-20T14:59:09.300Z,35.73
2018-07-20T15:01:37.819Z,35.28
2018-07-20T15:04:06.667Z,35.18
2018-07-20T15:06:35.397Z,35.17
2018-07-20T15:09:07.162Z,35.51
2018-07-20T15:11:37.956Z,35.71
2018-07-20T15:14:07.053Z,36.27
2018-07-20T15:16:36.119Z,36.39
2018-07-20T15:19:05.263Z,36.54
2018-07-20T15:21:34.434Z,35.72
2018-07-20T15:24:03.631Z,35.24
2018-07-20T15:26:33.306Z,34.54
2018-07-20T15:29:02.363Z,34.12
2018-07-20T15:31:31.488Z,33.88
2018-07-20T15:34:01.123Z,34.04
2018-07-20T15:36:30.235Z,34.30
2018-07-20T15:38:59.307Z,34.39
2018-07-20T15:41:28.623Z,33.97
2018-07-20T15:43:58.158Z,33.98
2018-07-20T15:46:27.305Z,34.11
2018-07-20T15:48:56.527Z,34.20
2018-07-20T15:51:55.461Z,34.05
2018-07-20T15:53:55.001Z,34.04
2018-07-20T15:56:24.192Z,33.98
2018-07-20T15:58:53.256Z,33.24
2018-07-20T16:01:22.310Z,33.00
2018-07-20T16:03:51.922Z,32.62
2018-07-20T16:06:21.006Z,32.18
2018-07-20T16:08:50.242Z,31.93
2018-07-20T16:11:19.510Z,31.86
2018-07-20T16:13:48.795Z,31.84
2018-07-20T16:16:17.909Z,31.80
2018-07-20T16:18:47.128Z,31.57
2018-07-20T16:21:16.357Z,31.45
2018-07-20T16:23:45.411Z,31.30
2018-07-20T16:26:14.508Z,31.13
2018-07-20T16:28:43.972Z,31.05
2018-07-20T16:31:13.019Z,30.87
2018-07-20T16:33:42.095Z,30.67
2018-07-20T16:36:11.359Z,30.70
2018-07-20T16:38:40.401Z,30.68
2018-07-20T16:41:09.487Z,30.62
2018-07-20T16:43:38.961Z,30.65
2018-07-20T16:46:08.436Z,30.79
2018-07-20T16:48:37.492Z,30.77
2018-07-20T16:51:06.774Z,30.75
2018-07-20T16:53:35.851Z,30.71
2018-07-20T16:56:04.951Z,30.63
2018-07-20T16:58:34.161Z,30.48
2018-07-20T17:01:03.274Z,30.50
2018-07-20T17:03:32.444Z,30.37
2018-07-20T17:06:01.747Z,30.41
2018-07-20T17:08:30.856Z,30.19
2018-07-20T17:11:00.240Z,30.09
2018-07-20T17:13:29.320Z,29.96
2018-07-20T17:15:58.370Z,29.93
2018-07-20T17:18:27.952Z,29.83
2018-07-20T17:20:57.055Z,29.67
2018-07-20T17:23:26.246Z,29.66
2018-07-20T17:25:55.776Z,29.62
2018-07-20T17:28:24.840Z,29.51
2018-07-20T17:30:53.906Z,29.45
2018-07-20T17:33:23.140Z,29.45
2018-07-20T17:35:52.524Z,29.36
2018-07-20T17:38:21.586Z,29.15
2018-07-20T17:40:50.688Z,29.12
2018-07-20T17:43:19.894Z,29.09
2018-07-20T17:45:49.035Z,29.05
2018-07-20T17:48:18.110Z,29.00
2018-07-20T17:50:47.223Z,28.91
2018-07-20T17:53:16.363Z,28.87
2018-07-20T17:55:45.908Z,28.88
2018-07-20T17:58:14.970Z,28.88
2018-07-20T18:00:44.062Z,28.88
2018-07-20T18:03:13.407Z,28.79
2018-07-20T18:05:42.487Z,28.69
2018-07-20T18:08:11.787Z,28.67
2018-07-20T18:10:41.431Z,28.55
2018-07-20T18:13:10.563Z,28.51
2018-07-20T18:15:39.818Z,28.49
2018-07-20T18:18:08.899Z,28.40
2018-07-20T18:20:38.051Z,28.29
2018-07-20T18:23:07.295Z,28.09
2018-07-20T18:25:36.374Z,27.92
2018-07-20T18:28:05.658Z,27.87
2018-07-20T18:30:34.855Z,27.86
2018-07-20T18:33:03.982Z,27.76
2018-07-20T18:35:33.280Z,27.57
2018-07-20T18:38:02.351Z,27.55
2018-07-20T18:40:31.473Z,27.53
2018-07-20T18:43:00.722Z,27.40
2018-07-20T18:45:29.973Z,27.42
2018-07-20T18:47:59.048Z,27.30
2018-07-20T18:50:28.454Z,27.30
2018-07-20T18:52:57.543Z,27.24
2018-07-20T18:55:26.644Z,27.13
2018-07-20T18:57:55.826Z,27.05
2018-07-20T19:00:24.880Z,26.97
2018-07-20T19:02:54.150Z,26.91
2018-07-20T19:05:23.398Z,26.84
2018-07-20T19:07:52.291Z,26.83
2018-07-20T19:10:21.380Z,26.80
2018-07-20T19:12:50.521Z,26.70
2018-07-20T19:15:19.749Z,26.69
2018-07-20T19:17:48.804Z,26.63
2018-07-20T19:20:17.904Z,26.59
2018-07-20T19:22:47.524Z,26.45
2018-07-20T19:25:16.614Z,26.36
2018-07-20T19:27:45.686Z,26.33
2018-07-20T19:30:15.003Z,26.30
2018-07-20T19:32:44.676Z,26.25
2018-07-20T19:35:13.872Z,26.14
2018-07-20T19:37:42.945Z,26.13
2018-07-20T19:40:12.924Z,26.07
2018-07-20T19:42:44.488Z,26.04
2018-07-20T19:45:14.386Z,25.98
2018-07-20T19:47:43.812Z,26.02
2018-07-20T19:50:12.923Z,25.98
2018-07-20T19:52:42.195Z,25.92
2018-07-20T19:55:11.289Z,25.92
2018-07-20T19:57:40.566Z,25.84
2018-07-20T20:00:10.554Z,25.81
2018-07-20T20:02:39.885Z,25.80
2018-07-20T20:05:09.040Z,25.79
2018-07-20T20:07:38.823Z,25.67
2018-07-20T20:10:08.513Z,25.77
2018-07-20T20:12:38.170Z,25.59
2018-07-20T20:15:08.121Z,25.58
2018-07-20T20:17:37.207Z,25.71
2018-07-20T20:20:10.105Z,25.68
2018-07-20T20:22:39.182Z,25.67
2018-07-20T20:25:08.526Z,25.67
2018-07-20T20:27:37.808Z,25.54
2018-07-20T20:30:07.033Z,25.54
2018-07-20T20:32:36.936Z,25.43
2018-07-20T20:35:06.186Z,25.41
2018-07-20T20:37:35.384Z,25.44
2018-07-20T20:40:05.053Z,25.41
2018-07-20T20:42:34.128Z,25.44
2018-07-20T20:45:03.439Z,25.31
2018-07-20T20:47:32.538Z,25.33
2018-07-20T20:50:01.582Z,25.40
2018-07-20T20:52:31.563Z,25.45
2018-07-20T20:55:01.077Z,25.42
2018-07-20T20:57:30.245Z,25.27
2018-07-20T20:59:59.446Z,25.20
2018-07-20T21:02:28.673Z,25.17
2018-07-20T21:04:57.777Z,25.17
2018-07-20T21:07:26.964Z,25.17
2018-07-20T21:09:57.065Z,25.17
2018-07-20T21:12:26.182Z,25.17
2018-07-20T21:14:55.395Z,25.17
2018-07-20T21:17:24.469Z,25.19
2018-07-20T21:19:53.629Z,25.13
2018-07-20T21:22:22.942Z,25.15
2018-07-20T21:24:52.091Z,25.19
2018-07-20T21:27:21.759Z,25.16
2018-07-20T21:29:51.353Z,25.23
2018-07-20T21:32:20.428Z,25.06
2018-07-20T21:34:49.520Z,25.12
2018-07-20T21:37:19.632Z,25.16
2018-07-20T21:39:49.139Z,25.00
2018-07-20T21:42:18.256Z,24.81
2018-07-20T21:44:47.555Z,24.95
2018-07-20T21:47:16.840Z,24.91
2018-07-20T21:49:46.494Z,24.89
2018-07-20T21:52:15.955Z,24.89
2018-07-20T21:54:45.622Z,24.78
2018-07-20T21:57:14.798Z,24.81
2018-07-20T21:59:56.447Z,24.84
2018-07-20T22:02:40.878Z,24.75
2018-07-20T22:05:27.135Z,24.79
2018-07-20T22:08:13.900Z,24.84
2018-07-20T22:10:58.641Z,24.82
2018-07-20T22:16:29.784Z,24.94
2018-07-20T22:19:21.446Z,24.88
2018-07-20T22:22:05.176Z,24.79
2018-07-20T22:24:51.018Z,24.78
2018-07-20T22:27:35.118Z,24.76
2018-07-20T22:30:24.796Z,24.78
2018-07-20T22:33:05.267Z,24.77
2018-07-20T22:35:48.209Z,24.74
2018-07-20T22:38:36.296Z,24.63
2018-07-20T22:41:20.063Z,24.64
2018-07-20T22:44:04.161Z,24.61
2018-07-20T22:46:49.186Z,24.65
2018-07-20T22:49:44.740Z,24.60
2018-07-20T22:52:39.189Z,24.56
2018-07-20T22:55:22.994Z,24.59
2018-07-20T22:58:11.711Z,24.64
2018-07-20T23:00:57.638Z,24.51
2018-07-20T23:06:22.903Z,24.50
2018-07-20T23:09:10.295Z,24.49
2018-07-20T23:11:51.456Z,24.45
2018-07-20T23:14:37.339Z,24.39
2018-07-20T23:17:25.063Z,24.33
2018-07-20T23:20:06.787Z,24.31
2018-07-20T23:22:47.349Z,24.26
2018-07-20T23:28:22.990Z,24.10
2018-07-20T23:31:08.432Z,24.04
2018-07-20T23:33:53.173Z,24.07
2018-07-20T23:36:42.472Z,24.05
2018-07-20T23:39:30.502Z,24.02
2018-07-20T23:42:20.280Z,24.02
2018-07-20T23:44:55.358Z,24.08
2018-07-20T23:47:43.063Z,24.07
2018-07-20T23:50:24.968Z,24.14
2018-07-20T23:53:17.129Z,24.06
2018-07-20T23:56:01.934Z,24.10
2018-07-20T23:58:52.817Z,24.05
